sensor_id;sensor_type;location;lat;lon;timestamp;pressure;altitude;pressure_sealevel;temperature;humidity
77017;BME280;65949;53.132;17.930;2023-08-24T00:01:45;101243.46;;;18.59;68.11
77017;BME280;65949;53.132;17.930;2023-08-24T00:04:12;101238.89;;;18.54;68.29
77017;BME280;65949;53.132;17.930;2023-08-24T00:06:38;101239.89;;;18.52;68.36
77017;BME280;65949;53.132;17.930;2023-08-24T00:09:05;101235.66;;;18.49;68.62
77017;BME280;65949;53.132;17.930;2023-08-24T00:11:32;101240.00;;;18.46;68.80
77017;BME280;65949;53.132;17.930;2023-08-24T00:13:58;101243.34;;;18.44;68.68
77017;BME280;65949;53.132;17.930;2023-08-24T00:16:25;101248.27;;;18.40;68.92
77017;BME280;65949;53.132;17.930;2023-08-24T00:18:52;101250.34;;;18.37;69.00
77017;BME280;65949;53.132;17.930;2023-08-24T00:21:19;101250.04;;;18.35;69.04
77017;BME280;65949;53.132;17.930;2023-08-24T00:23:52;101251.14;;;18.33;69.18
77017;BME280;65949;53.132;17.930;2023-08-24T00:26:19;101254.48;;;18.32;69.25
77017;BME280;65949;53.132;17.930;2023-08-24T00:28:46;101254.00;;;18.33;69.00
77017;BME280;65949;53.132;17.930;2023-08-24T00:31:15;101252.78;;;18.34;69.25
77017;BME280;65949;53.132;17.930;2023-08-24T00:33:42;101252.27;;;18.35;69.32
77017;BME280;65949;53.132;17.930;2023-08-24T00:36:09;101247.29;;;18.35;68.95
77017;BME280;65949;53.132;17.930;2023-08-24T00:38:36;101248.65;;;18.37;69.17
77017;BME280;65949;53.132;17.930;2023-08-24T00:41:03;101248.81;;;18.36;69.18
77017;BME280;65949;53.132;17.930;2023-08-24T00:43:30;101253.36;;;18.35;69.31
77017;BME280;65949;53.132;17.930;2023-08-24T00:45:59;101256.91;;;18.34;69.32
77017;BME280;65949;53.132;17.930;2023-08-24T00:48:27;101258.17;;;18.34;69.33
77017;BME280;65949;53.132;17.930;2023-08-24T00:50:57;101257.06;;;18.33;69.32
77017;BME280;65949;53.132;17.930;2023-08-24T00:53:26;101261.80;;;18.31;69.26
77017;BME280;65949;53.132;17.930;2023-08-24T00:55:54;101264.24;;;18.29;69.29
77017;BME280;65949;53.132;17.930;2023-08-24T00:58:21;101265.77;;;18.27;69.29
77017;BME280;65949;53.132;17.930;2023-08-24T01:00:52;101266.07;;;18.24;69.48
77017;BME280;65949;53.132;17.930;2023-08-24T01:03:22;101267.59;;;18.22;69.46
77017;BME280;65949;53.132;17.930;2023-08-24T01:05:49;101272.45;;;18.19;69.66
77017;BME280;65949;53.132;17.930;2023-08-24T01:08:16;101275.10;;;18.14;69.71
77017;BME280;65949;53.132;17.930;2023-08-24T01:10:59;101270.98;;;18.10;69.90
77017;BME280;65949;53.132;17.930;2023-08-24T01:16:38;101266.48;;;18.01;69.95
77017;BME280;65949;53.132;17.930;2023-08-24T01:19:19;101265.02;;;17.97;69.91
77017;BME280;65949;53.132;17.930;2023-08-24T01:21:49;101266.81;;;17.96;69.99
77017;BME280;65949;53.132;17.930;2023-08-24T01:24:22;101264.74;;;17.93;70.09
77017;BME280;65949;53.132;17.930;2023-08-24T01:26:53;101264.94;;;17.91;70.16
77017;BME280;65949;53.132;17.930;2023-08-24T01:29:21;101265.67;;;17.87;70.29
77017;BME280;65949;53.132;17.930;2023-08-24T01:31:48;101265.88;;;17.83;70.35
77017;BME280;65949;53.132;17.930;2023-08-24T01:34:18;101260.32;;;17.78;70.50
77017;BME280;65949;53.132;17.930;2023-08-24T01:36:44;101260.91;;;17.73;70.65
77017;BME280;65949;53.132;17.930;2023-08-24T01:42:10;101262.13;;;17.65;70.89
77017;BME280;65949;53.132;17.930;2023-08-24T01:44:42;101264.39;;;17.60;70.93
77017;BME280;65949;53.132;17.930;2023-08-24T01:47:12;101265.55;;;17.57;71.00
77017;BME280;65949;53.132;17.930;2023-08-24T01:49:40;101264.73;;;17.54;71.14
77017;BME280;65949;53.132;17.930;2023-08-24T01:52:09;101264.93;;;17.52;71.21
77017;BME280;65949;53.132;17.930;2023-08-24T01:54:37;101261.82;;;17.48;71.22
77017;BME280;65949;53.132;17.930;2023-08-24T01:57:05;101262.22;;;17.45;71.18
77017;BME280;65949;53.132;17.930;2023-08-24T01:59:32;101258.95;;;17.41;71.29
77017;BME280;65949;53.132;17.930;2023-08-24T02:01:59;101259.83;;;17.37;71.40
77017;BME280;65949;53.132;17.930;2023-08-24T02:04:26;101260.02;;;17.32;71.47
77017;BME280;65949;53.132;17.930;2023-08-24T02:06:52;101256.11;;;17.28;71.62
77017;BME280;65949;53.132;17.930;2023-08-24T02:09:19;101257.39;;;17.24;71.67
77017;BME280;65949;53.132;17.930;2023-08-24T02:11:45;101254.80;;;17.19;71.73
77017;BME280;65949;53.132;17.930;2023-08-24T02:14:12;101254.73;;;17.13;71.83
77017;BME280;65949;53.132;17.930;2023-08-24T02:16:39;101253.00;;;17.06;71.89
77017;BME280;65949;53.132;17.930;2023-08-24T02:19:06;101254.48;;;17.01;71.86
77017;BME280;65949;53.132;17.930;2023-08-24T02:21:35;101259.73;;;16.96;72.04
77017;BME280;65949;53.132;17.930;2023-08-24T02:24:04;101259.04;;;16.92;72.14
77017;BME280;65949;53.132;17.930;2023-08-24T02:26:31;101253.55;;;16.88;72.25
77017;BME280;65949;53.132;17.930;2023-08-24T02:28:59;101253.64;;;16.84;72.34
77017;BME280;65949;53.132;17.930;2023-08-24T02:31:26;101252.07;;;16.80;72.54
77017;BME280;65949;53.132;17.930;2023-08-24T02:33:52;101251.36;;;16.76;72.75
77017;BME280;65949;53.132;17.930;2023-08-24T02:36:19;101256.08;;;16.72;72.80
77017;BME280;65949;53.132;17.930;2023-08-24T02:38:46;101254.30;;;16.71;72.96
77017;BME280;65949;53.132;17.930;2023-08-24T02:41:13;101254.27;;;16.70;73.06
77017;BME280;65949;53.132;17.930;2023-08-24T02:43:41;101253.99;;;16.70;73.19
77017;BME280;65949;53.132;17.930;2023-08-24T02:46:08;101256.73;;;16.70;73.24
77017;BME280;65949;53.132;17.930;2023-08-24T02:48:38;101260.63;;;16.71;73.23
77017;BME280;65949;53.132;17.930;2023-08-24T02:51:05;101258.52;;;16.72;73.34
77017;BME280;65949;53.132;17.930;2023-08-24T02:53:32;101254.70;;;16.73;73.43
77017;BME280;65949;53.132;17.930;2023-08-24T02:55:59;101252.47;;;16.76;73.45
77017;BME280;65949;53.132;17.930;2023-08-24T02:58:26;101256.34;;;16.78;73.45
77017;BME280;65949;53.132;17.930;2023-08-24T03:00:53;101259.69;;;16.80;73.36
77017;BME280;65949;53.132;17.930;2023-08-24T03:03:20;101254.98;;;16.82;73.36
77017;BME280;65949;53.132;17.930;2023-08-24T03:05:58;101250.79;;;16.85;73.47
77017;BME280;65949;53.132;17.930;2023-08-24T03:08:29;101248.88;;;16.87;73.46
77017;BME280;65949;53.132;17.930;2023-08-24T03:10:57;101244.17;;;16.88;73.45
77017;BME280;65949;53.132;17.930;2023-08-24T03:13:24;101244.91;;;16.89;73.45
77017;BME280;65949;53.132;17.930;2023-08-24T03:15:51;101242.48;;;16.89;73.42
77017;BME280;65949;53.132;17.930;2023-08-24T03:18:19;101239.34;;;16.88;73.49
77017;BME280;65949;53.132;17.930;2023-08-24T03:20:47;101246.61;;;16.88;73.48
77017;BME280;65949;53.132;17.930;2023-08-24T03:23:15;101253.59;;;16.84;73.99
77017;BME280;65949;53.132;17.930;2023-08-24T03:25:42;101253.80;;;16.76;74.17
77017;BME280;65949;53.132;17.930;2023-08-24T03:28:10;101255.50;;;16.73;73.97
77017;BME280;65949;53.132;17.930;2023-08-24T03:30:38;101252.06;;;16.74;73.96
77017;BME280;65949;53.132;17.930;2023-08-24T03:33:05;101251.27;;;16.76;73.96
77017;BME280;65949;53.132;17.930;2023-08-24T03:35:32;101250.52;;;16.77;73.93
77017;BME280;65949;53.132;17.930;2023-08-24T03:38:00;101247.67;;;16.77;74.01
77017;BME280;65949;53.132;17.930;2023-08-24T03:40:27;101245.08;;;16.79;73.96
77017;BME280;65949;53.132;17.930;2023-08-24T03:42:54;101244.53;;;16.80;74.11
77017;BME280;65949;53.132;17.930;2023-08-24T03:45:21;101244.67;;;16.82;74.10
77017;BME280;65949;53.132;17.930;2023-08-24T03:47:48;101245.88;;;16.83;74.08
77017;BME280;65949;53.132;17.930;2023-08-24T03:50:16;101242.52;;;16.84;74.04
77017;BME280;65949;53.132;17.930;2023-08-24T03:52:42;101241.09;;;16.86;73.93
77017;BME280;65949;53.132;17.930;2023-08-24T03:55:09;101242.83;;;16.86;74.03
77017;BME280;65949;53.132;17.930;2023-08-24T03:57:36;101245.31;;;16.87;74.04
77017;BME280;65949;53.132;17.930;2023-08-24T04:00:05;101250.52;;;16.86;74.16
77017;BME280;65949;53.132;17.930;2023-08-24T04:02:41;101257.11;;;16.81;74.37
77017;BME280;65949;53.132;17.930;2023-08-24T04:05:08;101255.50;;;16.77;74.63
77017;BME280;65949;53.132;17.930;2023-08-24T04:07:35;101256.59;;;16.69;75.18
77017;BME280;65949;53.132;17.930;2023-08-24T04:10:06;101262.06;;;16.57;75.65
77017;BME280;65949;53.132;17.930;2023-08-24T04:12:33;101269.77;;;16.46;76.36
77017;BME280;65949;53.132;17.930;2023-08-24T04:15:00;101273.80;;;16.34;76.51
77017;BME280;65949;53.132;17.930;2023-08-24T04:17:26;101277.05;;;16.29;76.58
77017;BME280;65949;53.132;17.930;2023-08-24T04:19:53;101280.45;;;16.23;76.98
77017;BME280;65949;53.132;17.930;2023-08-24T04:22:20;101278.34;;;16.17;77.12
77017;BME280;65949;53.132;17.930;2023-08-24T04:24:46;101278.14;;;16.15;77.21
77017;BME280;65949;53.132;17.930;2023-08-24T04:27:13;101276.98;;;16.16;77.11
77017;BME280;65949;53.132;17.930;2023-08-24T04:29:39;101276.44;;;16.19;77.08
77017;BME280;65949;53.132;17.930;2023-08-24T04:32:06;101278.13;;;16.25;77.06
77017;BME280;65949;53.132;17.930;2023-08-24T04:34:33;101274.33;;;16.33;77.07
77017;BME280;65949;53.132;17.930;2023-08-24T04:36:59;101277.65;;;16.43;76.99
77017;BME280;65949;53.132;17.930;2023-08-24T04:39:27;101269.66;;;16.50;76.99
77017;BME280;65949;53.132;17.930;2023-08-24T04:41:55;101266.52;;;16.58;76.72
77017;BME280;65949;53.132;17.930;2023-08-24T04:44:22;101261.48;;;16.64;76.79
77017;BME280;65949;53.132;17.930;2023-08-24T04:46:49;101259.52;;;16.72;76.72
77017;BME280;65949;53.132;17.930;2023-08-24T04:49:16;101263.86;;;16.80;76.63
77017;BME280;65949;53.132;17.930;2023-08-24T04:51:42;101263.30;;;16.88;76.58
77017;BME280;65949;53.132;17.930;2023-08-24T04:54:09;101266.07;;;16.95;76.32
77017;BME280;65949;53.132;17.930;2023-08-24T04:56:36;101266.88;;;17.04;76.19
77017;BME280;65949;53.132;17.930;2023-08-24T04:59:03;101274.39;;;17.15;75.98
77017;BME280;65949;53.132;17.930;2023-08-24T05:01:30;101279.02;;;17.30;75.69
77017;BME280;65949;53.132;17.930;2023-08-24T05:03:59;101281.64;;;17.81;74.45
77017;BME280;65949;53.132;17.930;2023-08-24T05:06:26;101279.63;;;18.11;73.49
77017;BME280;65949;53.132;17.930;2023-08-24T05:08:52;101277.91;;;18.23;73.10
77017;BME280;65949;53.132;17.930;2023-08-24T05:11:21;101281.78;;;18.63;72.33
77017;BME280;65949;53.132;17.930;2023-08-24T05:13:48;101284.42;;;18.41;72.82
77017;BME280;65949;53.132;17.930;2023-08-24T05:16:15;101282.86;;;18.24;72.74
77017;BME280;65949;53.132;17.930;2023-08-24T05:18:41;101287.27;;;18.12;73.01
77017;BME280;65949;53.132;17.930;2023-08-24T05:21:08;101287.66;;;18.03;73.24
77017;BME280;65949;53.132;17.930;2023-08-24T05:23:35;101290.23;;;17.88;73.57
77017;BME280;65949;53.132;17.930;2023-08-24T05:26:02;101289.23;;;17.76;74.14
77017;BME280;65949;53.132;17.930;2023-08-24T05:28:30;101288.86;;;17.65;74.44
77017;BME280;65949;53.132;17.930;2023-08-24T05:30:58;101294.79;;;17.63;74.40
77017;BME280;65949;53.132;17.930;2023-08-24T05:33:27;101290.59;;;17.69;74.34
77017;BME280;65949;53.132;17.930;2023-08-24T05:35:57;101293.89;;;17.75;74.08
77017;BME280;65949;53.132;17.930;2023-08-24T05:38:25;101294.86;;;17.78;73.87
77017;BME280;65949;53.132;17.930;2023-08-24T05:40:52;101297.39;;;17.82;73.73
77017;BME280;65949;53.132;17.930;2023-08-24T05:43:18;101295.00;;;17.83;73.63
77017;BME280;65949;53.132;17.930;2023-08-24T05:45:45;101295.33;;;17.90;73.46
77017;BME280;65949;53.132;17.930;2023-08-24T05:48:13;101294.50;;;18.00;73.23
77017;BME280;65949;53.132;17.930;2023-08-24T05:50:46;101293.08;;;18.11;72.80
77017;BME280;65949;53.132;17.930;2023-08-24T05:53:13;101296.85;;;18.16;72.55
77017;BME280;65949;53.132;17.930;2023-08-24T05:55:40;101295.74;;;18.20;72.52
77017;BME280;65949;53.132;17.930;2023-08-24T05:58:08;101294.33;;;18.27;72.36
77017;BME280;65949;53.132;17.930;2023-08-24T06:00:34;101289.61;;;18.36;72.23
77017;BME280;65949;53.132;17.930;2023-08-24T06:03:01;101289.34;;;18.44;71.85
77017;BME280;65949;53.132;17.930;2023-08-24T06:05:30;101286.39;;;18.50;71.84
77017;BME280;65949;53.132;17.930;2023-08-24T06:07:57;101290.98;;;18.56;71.47
77017;BME280;65949;53.132;17.930;2023-08-24T06:10:24;101292.59;;;18.63;71.42
77017;BME280;65949;53.132;17.930;2023-08-24T06:12:52;101294.15;;;18.72;71.16
77017;BME280;65949;53.132;17.930;2023-08-24T06:15:19;101290.67;;;18.81;70.88
77017;BME280;65949;53.132;17.930;2023-08-24T06:17:50;101288.72;;;18.86;70.48
77017;BME280;65949;53.132;17.930;2023-08-24T06:20:17;101289.09;;;18.91;70.42
77017;BME280;65949;53.132;17.930;2023-08-24T06:22:44;101294.58;;;18.98;69.78
77017;BME280;65949;53.132;17.930;2023-08-24T06:25:10;101301.27;;;19.02;69.70
77017;BME280;65949;53.132;17.930;2023-08-24T06:27:37;101298.70;;;19.09;69.42
77017;BME280;65949;53.132;17.930;2023-08-24T06:30:04;101298.52;;;19.19;69.19
77017;BME280;65949;53.132;17.930;2023-08-24T06:32:31;101297.42;;;19.31;68.57
77017;BME280;65949;53.132;17.930;2023-08-24T06:34:57;101298.27;;;19.41;68.07
77017;BME280;65949;53.132;17.930;2023-08-24T06:37:25;101293.98;;;19.52;67.80
77017;BME280;65949;53.132;17.930;2023-08-24T06:39:51;101293.26;;;19.64;67.55
77017;BME280;65949;53.132;17.930;2023-08-24T06:42:18;101299.81;;;19.77;67.14
77017;BME280;65949;53.132;17.930;2023-08-24T06:44:45;101298.39;;;19.86;65.93
77017;BME280;65949;53.132;17.930;2023-08-24T06:47:12;101290.47;;;19.91;65.72
77017;BME280;65949;53.132;17.930;2023-08-24T06:49:38;101292.98;;;20.05;66.01
77017;BME280;65949;53.132;17.930;2023-08-24T06:52:05;101294.34;;;20.22;64.72
77017;BME280;65949;53.132;17.930;2023-08-24T06:54:32;101296.57;;;20.28;63.88
77017;BME280;65949;53.132;17.930;2023-08-24T06:56:58;101295.29;;;20.28;63.73
77017;BME280;65949;53.132;17.930;2023-08-24T06:59:25;101295.89;;;20.34;63.87
77017;BME280;65949;53.132;17.930;2023-08-24T07:01:51;101294.27;;;20.42;63.84
77017;BME280;65949;53.132;17.930;2023-08-24T07:04:18;101294.33;;;20.47;63.49
77017;BME280;65949;53.132;17.930;2023-08-24T07:06:45;101297.31;;;20.57;63.69
77017;BME280;65949;53.132;17.930;2023-08-24T07:09:12;101298.89;;;20.68;62.71
77017;BME280;65949;53.132;17.930;2023-08-24T07:11:39;101302.54;;;20.75;62.78
77017;BME280;65949;53.132;17.930;2023-08-24T07:14:05;101300.70;;;20.84;63.05
77017;BME280;65949;53.132;17.930;2023-08-24T07:16:32;101306.79;;;20.90;62.86
77017;BME280;65949;53.132;17.930;2023-08-24T07:18:58;101310.23;;;20.97;63.23
77017;BME280;65949;53.132;17.930;2023-08-24T07:21:25;101310.70;;;21.06;63.38
77017;BME280;65949;53.132;17.930;2023-08-24T07:23:52;101310.48;;;21.16;62.69
77017;BME280;65949;53.132;17.930;2023-08-24T07:26:19;101310.46;;;21.21;62.76
77017;BME280;65949;53.132;17.930;2023-08-24T07:28:45;101310.68;;;21.35;62.87
77017;BME280;65949;53.132;17.930;2023-08-24T07:31:12;101313.59;;;21.50;62.18
77017;BME280;65949;53.132;17.930;2023-08-24T07:33:40;101306.14;;;21.53;60.85
77017;BME280;65949;53.132;17.930;2023-08-24T07:36:07;101304.30;;;21.53;60.98
77017;BME280;65949;53.132;17.930;2023-08-24T07:38:34;101309.27;;;21.59;61.05
77017;BME280;65949;53.132;17.930;2023-08-24T07:41:00;101307.17;;;21.70;60.80
77017;BME280;65949;53.132;17.930;2023-08-24T07:43:27;101305.23;;;21.87;60.96
77017;BME280;65949;53.132;17.930;2023-08-24T07:45:53;101306.34;;;22.06;60.45
77017;BME280;65949;53.132;17.930;2023-08-24T07:48:21;101309.85;;;22.31;59.85
77017;BME280;65949;53.132;17.930;2023-08-24T07:50:47;101315.64;;;22.52;59.13
77017;BME280;65949;53.132;17.930;2023-08-24T07:53:14;101309.15;;;22.74;58.48
77017;BME280;65949;53.132;17.930;2023-08-24T07:55:42;101314.11;;;22.87;56.39
77017;BME280;65949;53.132;17.930;2023-08-24T07:58:09;101315.88;;;22.93;54.71
77017;BME280;65949;53.132;17.930;2023-08-24T08:00:36;101311.94;;;23.04;52.15
77017;BME280;65949;53.132;17.930;2023-08-24T08:03:02;101311.98;;;23.13;51.19
77017;BME280;65949;53.132;17.930;2023-08-24T08:05:29;101314.77;;;23.21;50.19
77017;BME280;65949;53.132;17.930;2023-08-24T08:07:56;101315.21;;;23.27;49.41
77017;BME280;65949;53.132;17.930;2023-08-24T08:10:22;101313.02;;;23.27;47.44
77017;BME280;65949;53.132;17.930;2023-08-24T08:12:49;101317.16;;;23.24;48.75
77017;BME280;65949;53.132;17.930;2023-08-24T08:15:16;101313.66;;;23.37;47.67
77017;BME280;65949;53.132;17.930;2023-08-24T08:17:42;101313.73;;;23.41;46.94
77017;BME280;65949;53.132;17.930;2023-08-24T08:20:09;101316.96;;;23.52;47.84
77017;BME280;65949;53.132;17.930;2023-08-24T08:22:36;101322.14;;;23.62;46.88
77017;BME280;65949;53.132;17.930;2023-08-24T08:25:06;101322.09;;;23.60;47.30
77017;BME280;65949;53.132;17.930;2023-08-24T08:27:33;101322.01;;;23.67;47.49
77017;BME280;65949;53.132;17.930;2023-08-24T08:29:59;101319.75;;;23.69;46.86
77017;BME280;65949;53.132;17.930;2023-08-24T08:32:26;101323.55;;;23.73;47.38
77017;BME280;65949;53.132;17.930;2023-08-24T08:34:54;101324.98;;;23.79;47.44
77017;BME280;65949;53.132;17.930;2023-08-24T08:37:24;101323.02;;;23.77;46.98
77017;BME280;65949;53.132;17.930;2023-08-24T08:39:51;101324.57;;;23.78;47.63
77017;BME280;65949;53.132;17.930;2023-08-24T08:42:18;101329.15;;;23.86;47.07
77017;BME280;65949;53.132;17.930;2023-08-24T08:44:46;101328.09;;;23.89;47.06
77017;BME280;65949;53.132;17.930;2023-08-24T08:47:13;101327.73;;;23.89;46.84
77017;BME280;65949;53.132;17.930;2023-08-24T08:49:42;101324.31;;;24.00;46.98
77017;BME280;65949;53.132;17.930;2023-08-24T08:52:09;101324.12;;;24.04;46.47
77017;BME280;65949;53.132;17.930;2023-08-24T08:54:36;101326.74;;;24.05;47.09
77017;BME280;65949;53.132;17.930;2023-08-24T08:57:03;101327.65;;;24.09;46.84
77017;BME280;65949;53.132;17.930;2023-08-24T08:59:31;101328.41;;;24.09;47.33
77017;BME280;65949;53.132;17.930;2023-08-24T09:02:03;101326.09;;;24.11;47.78
77017;BME280;65949;53.132;17.930;2023-08-24T09:04:32;101322.14;;;24.20;48.11
77017;BME280;65949;53.132;17.930;2023-08-24T09:06:59;101318.83;;;24.34;47.46
77017;BME280;65949;53.132;17.930;2023-08-24T09:09:34;101316.36;;;24.40;47.34
77017;BME280;65949;53.132;17.930;2023-08-24T09:12:01;101316.92;;;24.36;46.83
77017;BME280;65949;53.132;17.930;2023-08-24T09:14:28;101318.54;;;24.39;46.25
77017;BME280;65949;53.132;17.930;2023-08-24T09:16:55;101318.04;;;24.37;46.48
77017;BME280;65949;53.132;17.930;2023-08-24T09:19:28;101315.67;;;24.42;47.02
77017;BME280;65949;53.132;17.930;2023-08-24T09:21:59;101312.21;;;24.40;46.50
77017;BME280;65949;53.132;17.930;2023-08-24T09:24:33;101311.04;;;24.35;46.48
77017;BME280;65949;53.132;17.930;2023-08-24T09:27:14;101304.36;;;24.32;46.14
77017;BME280;65949;53.132;17.930;2023-08-24T09:29:41;101304.89;;;24.23;46.51
77017;BME280;65949;53.132;17.930;2023-08-24T09:32:08;101303.30;;;24.21;46.59
77017;BME280;65949;53.132;17.930;2023-08-24T09:34:36;101299.29;;;24.22;46.28
77017;BME280;65949;53.132;17.930;2023-08-24T09:37:03;101298.81;;;24.24;46.82
77017;BME280;65949;53.132;17.930;2023-08-24T09:39:30;101302.16;;;24.39;46.68
77017;BME280;65949;53.132;17.930;2023-08-24T09:42:00;101297.42;;;24.55;46.22
77017;BME280;65949;53.132;17.930;2023-08-24T09:44:30;101294.87;;;24.76;46.26
77017;BME280;65949;53.132;17.930;2023-08-24T09:46:56;101294.38;;;25.00;45.67
77017;BME280;65949;53.132;17.930;2023-08-24T09:49:23;101295.23;;;25.13;45.53
77017;BME280;65949;53.132;17.930;2023-08-24T09:51:50;101297.20;;;25.31;45.09
77017;BME280;65949;53.132;17.930;2023-08-24T09:54:21;101294.85;;;25.41;44.62
77017;BME280;65949;53.132;17.930;2023-08-24T09:56:51;101292.58;;;25.42;44.30
77017;BME280;65949;53.132;17.930;2023-08-24T09:59:19;101292.63;;;25.43;44.13
77017;BME280;65949;53.132;17.930;2023-08-24T10:01:51;101289.69;;;25.44;44.67
77017;BME280;65949;53.132;17.930;2023-08-24T10:04:25;101289.11;;;25.58;44.73
77017;BME280;65949;53.132;17.930;2023-08-24T10:07:11;101291.25;;;25.58;43.17
77017;BME280;65949;53.132;17.930;2023-08-24T10:09:54;101285.34;;;25.32;43.49
77017;BME280;65949;53.132;17.930;2023-08-24T10:12:27;101288.13;;;25.24;43.57
77017;BME280;65949;53.132;17.930;2023-08-24T10:15:02;101287.80;;;25.18;44.06
77017;BME280;65949;53.132;17.930;2023-08-24T10:17:31;101279.74;;;25.19;44.27
77017;BME280;65949;53.132;17.930;2023-08-24T10:20:00;101273.41;;;25.30;43.62
77017;BME280;65949;53.132;17.930;2023-08-24T10:22:36;101271.31;;;25.32;42.86
77017;BME280;65949;53.132;17.930;2023-08-24T10:25:03;101268.27;;;25.30;43.36
77017;BME280;65949;53.132;17.930;2023-08-24T10:27:30;101269.34;;;25.34;42.98
77017;BME280;65949;53.132;17.930;2023-08-24T10:29:58;101263.20;;;25.27;43.32
77017;BME280;65949;53.132;17.930;2023-08-24T10:32:28;101259.30;;;25.22;43.50
77017;BME280;65949;53.132;17.930;2023-08-24T10:34:55;101256.27;;;25.19;44.02
77017;BME280;65949;53.132;17.930;2023-08-24T10:37:28;101261.73;;;25.16;44.21
77017;BME280;65949;53.132;17.930;2023-08-24T10:39:54;101254.17;;;25.26;44.57
77017;BME280;65949;53.132;17.930;2023-08-24T10:42:21;101247.65;;;25.33;43.20
77017;BME280;65949;53.132;17.930;2023-08-24T10:44:48;101248.61;;;25.32;43.74
77017;BME280;65949;53.132;17.930;2023-08-24T10:47:22;101245.60;;;25.34;43.62
77017;BME280;65949;53.132;17.930;2023-08-24T10:52:31;101241.23;;;25.33;44.18
77017;BME280;65949;53.132;17.930;2023-08-24T10:55:01;101239.63;;;25.33;44.28
77017;BME280;65949;53.132;17.930;2023-08-24T10:57:39;101238.30;;;25.27;44.40
77017;BME280;65949;53.132;17.930;2023-08-24T11:00:11;101239.73;;;25.27;44.79
77017;BME280;65949;53.132;17.930;2023-08-24T11:02:42;101237.15;;;25.37;44.55
77017;BME280;65949;53.132;17.930;2023-08-24T11:05:17;101234.02;;;25.42;43.94
77017;BME280;65949;53.132;17.930;2023-08-24T11:07:58;101228.02;;;25.42;43.23
77017;BME280;65949;53.132;17.930;2023-08-24T11:10:32;101225.13;;;25.34;44.14
77017;BME280;65949;53.132;17.930;2023-08-24T11:13:07;101221.73;;;25.47;44.47
77017;BME280;65949;53.132;17.930;2023-08-24T11:15:44;101220.10;;;25.59;43.52
77017;BME280;65949;53.132;17.930;2023-08-24T11:20:45;101219.48;;;25.53;42.19
77017;BME280;65949;53.132;17.930;2023-08-24T11:23:14;101221.05;;;25.54;42.32
77017;BME280;65949;53.132;17.930;2023-08-24T11:25:41;101218.57;;;25.64;42.31
77017;BME280;65949;53.132;17.930;2023-08-24T11:28:08;101212.06;;;25.71;42.01
77017;BME280;65949;53.132;17.930;2023-08-24T11:30:35;101206.63;;;25.73;42.30
77017;BME280;65949;53.132;17.930;2023-08-24T11:33:02;101204.26;;;25.73;42.84
77017;BME280;65949;53.132;17.930;2023-08-24T11:35:35;101203.22;;;25.85;42.90
77017;BME280;65949;53.132;17.930;2023-08-24T11:38:02;101201.20;;;25.89;41.80
77017;BME280;65949;53.132;17.930;2023-08-24T11:40:30;101203.11;;;25.86;42.18
77017;BME280;65949;53.132;17.930;2023-08-24T11:42:56;101200.34;;;25.92;42.05
77017;BME280;65949;53.132;17.930;2023-08-24T11:45:23;101197.21;;;26.02;41.49
77017;BME280;65949;53.132;17.930;2023-08-24T11:47:50;101195.70;;;26.20;42.07
77017;BME280;65949;53.132;17.930;2023-08-24T11:50:17;101193.48;;;26.40;40.51
77017;BME280;65949;53.132;17.930;2023-08-24T11:52:44;101188.15;;;26.38;40.70
77017;BME280;65949;53.132;17.930;2023-08-24T11:55:11;101190.06;;;26.41;40.50
77017;BME280;65949;53.132;17.930;2023-08-24T11:57:38;101186.41;;;26.48;40.78
77017;BME280;65949;53.132;17.930;2023-08-24T12:00:05;101183.22;;;26.52;40.59
77017;BME280;65949;53.132;17.930;2023-08-24T12:02:33;101185.27;;;26.52;40.24
77017;BME280;65949;53.132;17.930;2023-08-24T12:05:01;101182.87;;;26.47;39.59
77017;BME280;65949;53.132;17.930;2023-08-24T12:07:28;101179.65;;;26.31;40.30
77017;BME280;65949;53.132;17.930;2023-08-24T12:09:54;101180.60;;;26.23;40.08
77017;BME280;65949;53.132;17.930;2023-08-24T12:12:22;101174.48;;;26.20;40.36
77017;BME280;65949;53.132;17.930;2023-08-24T12:14:49;101174.59;;;26.27;40.91
77017;BME280;65949;53.132;17.930;2023-08-24T12:17:17;101172.17;;;26.43;40.73
77017;BME280;65949;53.132;17.930;2023-08-24T12:20:00;101167.58;;;26.49;40.06
77017;BME280;65949;53.132;17.930;2023-08-24T12:22:32;101161.30;;;26.52;40.65
77017;BME280;65949;53.132;17.930;2023-08-24T12:24:58;101166.08;;;26.66;40.21
77017;BME280;65949;53.132;17.930;2023-08-24T12:27:26;101161.54;;;26.78;40.23
77017;BME280;65949;53.132;17.930;2023-08-24T12:29:53;101158.59;;;26.90;39.98
77017;BME280;65949;53.132;17.930;2023-08-24T12:32:21;101154.48;;;26.93;39.46
77017;BME280;65949;53.132;17.930;2023-08-24T12:34:49;101156.48;;;26.85;39.38
77017;BME280;65949;53.132;17.930;2023-08-24T12:37:18;101163.01;;;26.62;40.32
77017;BME280;65949;53.132;17.930;2023-08-24T12:39:44;101154.41;;;26.61;40.24
77017;BME280;65949;53.132;17.930;2023-08-24T12:42:11;101154.04;;;26.58;39.99
77017;BME280;65949;53.132;17.930;2023-08-24T12:44:38;101152.88;;;26.45;40.18
77017;BME280;65949;53.132;17.930;2023-08-24T12:47:04;101147.41;;;26.24;40.64
77017;BME280;65949;53.132;17.930;2023-08-24T12:49:31;101144.46;;;26.26;40.94
77017;BME280;65949;53.132;17.930;2023-08-24T12:51:58;101139.75;;;26.20;41.17
77017;BME280;65949;53.132;17.930;2023-08-24T12:54:24;101140.66;;;26.20;41.22
77017;BME280;65949;53.132;17.930;2023-08-24T12:56:51;101134.43;;;26.28;40.59